Time;durP1;ratioP1;P1;durP2;ratioP2;P2;SDS_P1;SDS_P2;PMS_P1;PMS_P2;Temp;Humidity;BMP_temperature;BMP_pressure;BME280_temperature;BME280_humidity;BME280_pressure;Samples;Min_cycle;Max_cycle;Signal;HPM_P1;HPM_P2
2023/07/25 00:01:12;;;;;;;11.80;7.20;;;;;;;21.63;100.00;98002.80;109508;1252;66901;-68
2023/07/25 00:03:39;;;;;;;8.50;7.20;;;;;;;21.60;100.00;97998.31;109354;1254;72495;-67
2023/07/25 00:06:07;;;;;;;7.50;6.90;;;;;;;21.58;100.00;97999.02;109374;1252;61869;-68
2023/07/25 00:08:35;;;;;;;7.10;6.30;;;;;;;21.55;100.00;98001.05;109423;1253;60003;-67
2023/07/25 00:11:02;;;;;;;8.50;6.70;;;;;;;21.55;100.00;98000.60;109579;1253;73461;-67
2023/07/25 00:13:29;;;;;;;8.20;6.70;;;;;;;21.56;100.00;98002.89;109434;1253;66760;-67
2023/07/25 00:15:57;;;;;;;7.30;6.60;;;;;;;21.57;100.00;98005.41;109359;1252;73139;-68
2023/07/25 00:18:24;;;;;;;9.70;7.30;;;;;;;21.60;100.00;98000.81;109395;1253;60391;-68
2023/07/25 00:20:51;;;;;;;8.40;7.50;;;;;;;21.62;100.00;97996.03;109389;1253;59973;-68
2023/07/25 00:23:19;;;;;;;8.40;7.10;;;;;;;21.64;100.00;97984.34;109401;1254;74632;-68
2023/07/25 00:25:46;;;;;;;7.90;7.10;;;;;;;21.64;100.00;97977.34;109430;1252;67578;-68
2023/07/25 00:28:14;;;;;;;7.70;6.90;;;;;;;21.63;100.00;97975.25;109468;1253;71119;-68
2023/07/25 00:30:41;;;;;;;8.00;6.80;;;;;;;21.64;100.00;97969.94;109428;1254;61454;-69
2023/07/25 00:33:08;;;;;;;9.30;7.00;;;;;;;21.66;100.00;97967.92;109498;1253;59361;-68
2023/07/25 00:35:36;;;;;;;7.70;6.70;;;;;;;21.68;100.00;97969.00;109518;1252;74605;-68
2023/07/25 00:38:04;;;;;;;7.90;6.70;;;;;;;21.68;100.00;97964.45;109402;1253;67782;-68
2023/07/25 00:40:32;;;;;;;8.80;7.70;;;;;;;21.69;100.00;97963.69;109498;1252;72645;-68
2023/07/25 00:43:00;;;;;;;8.10;7.10;;;;;;;21.71;100.00;97959.84;109223;1252;60384;-69
2023/07/25 00:45:27;;;;;;;8.10;7.30;;;;;;;21.75;100.00;97961.23;109474;1253;59980;-68
2023/07/25 00:47:56;;;;;;;7.40;6.80;;;;;;;21.80;100.00;97962.83;109328;1252;74711;-68
2023/07/25 00:50:23;;;;;;;8.70;6.90;;;;;;;21.84;100.00;97960.59;109256;1253;66339;-68
2023/07/25 00:52:50;;;;;;;8.70;7.40;;;;;;;21.88;100.00;97954.33;109402;1254;72467;-68
2023/07/25 00:55:18;;;;;;;8.30;7.50;;;;;;;21.92;100.00;97955.81;109487;1252;60117;-68
2023/07/25 00:57:45;;;;;;;11.80;7.90;;;;;;;21.97;100.00;97953.23;109333;1252;60130;-69
2023/07/25 01:00:13;;;;;;;14.70;8.10;;;;;;;22.01;100.00;97949.84;109483;1253;74644;-68
2023/07/25 01:02:40;;;;;;;8.70;7.80;;;;;;;22.02;100.00;97945.58;109321;1253;66629;-68
2023/07/25 01:05:08;;;;;;;11.00;7.40;;;;;;;22.02;100.00;97940.05;109314;1253;72634;-68
2023/07/25 01:07:38;;;;;;;11.70;8.00;;;;;;;22.03;100.00;97941.82;109442;1252;61197;-68
2023/07/25 01:10:07;;;;;;;10.80;7.30;;;;;;;22.06;100.00;97937.58;109446;1253;59181;-68
2023/07/25 01:12:34;;;;;;;12.60;8.70;;;;;;;22.08;100.00;97938.05;109459;1254;73361;-68
2023/07/25 01:15:01;;;;;;;12.10;8.10;;;;;;;22.10;100.00;97945.24;109426;1253;67840;-69
2023/07/25 01:17:29;;;;;;;10.80;8.80;;;;;;;22.11;100.00;97987.96;109476;1252;72650;-68
2023/07/25 01:19:56;;;;;;;9.30;8.20;;;;;;;22.11;100.00;98045.33;109352;1253;60426;-68
2023/07/25 01:22:25;;;;;;;8.80;7.90;;;;;;;22.06;100.00;98055.70;109329;1253;58866;-68
2023/07/25 01:24:54;;;;;;;9.60;8.20;;;;;;;21.98;100.00;98048.73;109433;1253;74648;-68
2023/07/25 01:27:21;;;;;;;9.80;8.70;;;;;;;21.89;100.00;98056.52;109334;1253;67855;-68
2023/07/25 01:29:49;;;;;;;8.70;7.80;;;;;;;21.78;100.00;98058.54;109442;1254;71436;-68
2023/07/25 01:32:16;;;;;;;9.00;7.90;;;;;;;21.68;100.00;98053.66;109356;1254;60570;-69
2023/07/25 01:34:43;;;;;;;8.30;7.40;;;;;;;21.54;100.00;98045.96;109448;1252;60039;-69
2023/07/25 01:37:11;;;;;;;9.60;8.50;;;;;;;21.44;100.00;98062.05;109298;1252;75148;-68
2023/07/25 01:39:38;;;;;;;12.40;11.10;;;;;;;21.36;100.00;98060.39;109354;1254;67887;-68
2023/07/25 01:42:06;;;;;;;12.20;10.90;;;;;;;21.28;100.00;98061.42;109308;1254;71129;-68
2023/07/25 01:44:33;;;;;;;14.50;13.00;;;;;;;21.24;100.00;98064.14;109327;1252;60390;-68
2023/07/25 01:47:01;;;;;;;14.80;13.30;;;;;;;21.18;100.00;98071.98;109396;1252;59177;-68
2023/07/25 01:49:28;;;;;;;14.70;12.90;;;;;;;21.13;100.00;98068.21;109500;1254;74668;-68
2023/07/25 01:51:55;;;;;;;13.30;12.20;;;;;;;21.06;100.00;98064.42;109423;1252;68093;-69
2023/07/25 01:54:23;;;;;;;12.00;10.70;;;;;;;20.98;100.00;98063.42;109400;1253;71368;-68
2023/07/25 01:56:50;;;;;;;12.40;11.10;;;;;;;20.92;100.00;98072.66;109234;1253;61734;-68
2023/07/25 01:59:18;;;;;;;10.30;9.40;;;;;;;20.87;100.00;98070.45;109433;1253;60018;-69
2023/07/25 02:01:45;;;;;;;9.80;8.90;;;;;;;20.80;100.00;98078.61;109480;1254;74620;-68
2023/07/25 02:04:13;;;;;;;10.10;9.30;;;;;;;20.75;100.00;98087.04;109454;1252;66326;-68
2023/07/25 02:06:40;;;;;;;10.40;9.50;;;;;;;20.72;100.00;98092.02;109438;1253;72657;-69
2023/07/25 02:09:08;;;;;;;9.40;8.50;;;;;;;20.69;100.00;98091.80;109327;1254;61731;-69
2023/07/25 02:11:35;;;;;;;10.10;9.00;;;;;;;20.68;100.00;98086.21;109350;1253;60068;-69
2023/07/25 02:14:02;;;;;;;9.80;8.90;;;;;;;20.67;100.00;98087.69;109381;1253;74643;-69
2023/07/25 02:16:30;;;;;;;9.00;8.20;;;;;;;20.64;100.00;98093.30;109409;1254;65662;-68
2023/07/25 02:18:57;;;;;;;9.20;8.40;;;;;;;20.63;100.00;98102.22;109479;1253;71857;-68
2023/07/25 02:21:25;;;;;;;9.40;8.60;;;;;;;20.64;100.00;98104.31;109272;1256;61655;-69
2023/07/25 02:23:52;;;;;;;7.90;7.20;;;;;;;20.64;100.00;98108.54;109272;1253;59304;-69
2023/07/25 02:26:20;;;;;;;9.00;8.20;;;;;;;20.63;100.00;98108.73;109221;1253;74484;-69
2023/07/25 02:28:47;;;;;;;9.90;8.90;;;;;;;20.60;100.00;98117.44;109263;1254;66643;-68
2023/07/25 02:31:14;;;;;;;9.60;8.70;;;;;;;20.56;100.00;98124.83;109305;1254;72684;-68
2023/07/25 02:33:42;;;;;;;8.70;7.90;;;;;;;20.53;100.00;98130.13;109369;1254;61664;-68
2023/07/25 02:36:09;;;;;;;9.00;8.10;;;;;;;20.51;100.00;98132.23;109414;1253;60015;-69
2023/07/25 02:38:37;;;;;;;8.60;7.80;;;;;;;20.49;100.00;98130.54;109377;1253;72913;-69
2023/07/25 02:41:04;;;;;;;9.20;8.30;;;;;;;20.45;100.00;98136.47;109417;1252;66923;-69
2023/07/25 02:43:31;;;;;;;9.00;7.90;;;;;;;20.44;100.00;98136.08;109356;1252;72667;-68
2023/07/25 02:45:59;;;;;;;8.40;7.70;;;;;;;20.43;100.00;98133.02;109375;1255;60321;-68
2023/07/25 02:48:26;;;;;;;8.20;7.50;;;;;;;20.43;100.00;98130.58;109438;1253;60126;-68
2023/07/25 02:50:54;;;;;;;8.90;8.00;;;;;;;20.41;100.00;98135.38;109242;1253;75244;-69
2023/07/25 02:53:21;;;;;;;9.50;8.60;;;;;;;20.39;100.00;98132.56;109408;1253;66805;-68
2023/07/25 02:55:48;;;;;;;15.20;13.80;;;;;;;20.32;100.00;98124.42;109362;1253;70706;-69
2023/07/25 02:58:16;;;;;;;15.50;13.90;;;;;;;20.23;100.00;98114.98;109386;1253;60408;-69
2023/07/25 03:00:43;;;;;;;16.40;14.70;;;;;;;20.19;100.00;98103.31;109357;1252;60010;-69
2023/07/25 03:03:11;;;;;;;16.30;14.60;;;;;;;20.16;100.00;98098.10;109409;1253;73481;-68
2023/07/25 03:05:38;;;;;;;17.60;15.30;;;;;;;20.14;100.00;98097.08;109354;1253;66240;-69
2023/07/25 03:08:06;;;;;;;18.10;16.20;;;;;;;20.13;100.00;98087.78;109273;1253;72703;-69
2023/07/25 03:10:33;;;;;;;18.00;15.80;;;;;;;20.08;100.00;98087.60;109252;1256;60449;-68
2023/07/25 03:13:01;;;;;;;16.40;14.80;;;;;;;20.04;100.00;98090.72;109418;1252;59031;-69
2023/07/25 03:15:28;;;;;;;16.20;14.60;;;;;;;20.05;100.00;98088.04;109490;1252;75218;-68
2023/07/25 03:17:55;;;;;;;15.70;14.20;;;;;;;20.02;100.00;98089.73;109494;1253;67577;-68
2023/07/25 03:20:23;;;;;;;16.70;15.00;;;;;;;19.97;100.00;98088.48;109340;1256;72768;-68
2023/07/25 03:22:50;;;;;;;14.30;12.90;;;;;;;19.92;100.00;98092.06;109326;1253;60367;-69
2023/07/25 03:25:18;;;;;;;15.10;13.60;;;;;;;19.87;100.00;98093.30;109346;1252;58949;-68
2023/07/25 03:27:45;;;;;;;13.60;12.30;;;;;;;19.84;100.00;98083.45;109426;1252;74705;-68
2023/07/25 03:30:12;;;;;;;14.40;12.90;;;;;;;19.83;100.00;98079.34;109212;1254;67638;-68
2023/07/25 03:32:40;;;;;;;13.50;12.20;;;;;;;19.80;100.00;98081.05;109207;1256;72443;-68
2023/07/25 03:35:07;;;;;;;15.70;13.90;;;;;;;19.81;100.00;98089.11;109231;1252;61640;-68
2023/07/25 03:37:35;;;;;;;15.10;13.60;;;;;;;19.83;100.00;98100.77;109263;1253;60024;-68
2023/07/25 03:40:03;;;;;;;15.10;13.60;;;;;;;19.83;100.00;98104.93;109305;1252;73474;-68
2023/07/25 03:42:30;;;;;;;16.60;13.60;;;;;;;19.80;100.00;98098.27;109498;1253;66266;-67
2023/07/25 03:44:57;;;;;;;16.90;15.30;;;;;;;19.76;100.00;98105.06;109391;1253;71665;-68
2023/07/25 03:47:25;;;;;;;16.80;15.30;;;;;;;19.74;100.00;98096.52;109435;1254;60449;-69
2023/07/25 03:49:52;;;;;;;18.20;14.50;;;;;;;19.71;100.00;98079.45;109399;1253;58866;-68
2023/07/25 03:52:20;;;;;;;15.70;14.20;;;;;;;19.70;100.00;98080.74;109351;1253;73368;-68
2023/07/25 03:54:47;;;;;;;15.10;13.70;;;;;;;19.68;100.00;98074.85;109361;1253;67787;-68
2023/07/25 03:57:14;;;;;;;15.40;13.90;;;;;;;19.73;100.00;98066.89;109418;1253;73543;-68
2023/07/25 03:59:42;;;;;;;15.30;13.80;;;;;;;19.78;100.00;98069.40;109467;1253;60536;-68
2023/07/25 04:02:09;;;;;;;14.20;12.90;;;;;;;19.81;100.00;98061.47;109491;1253;58946;-68
2023/07/25 04:04:37;;;;;;;14.60;13.10;;;;;;;19.85;100.00;98045.09;109365;1253;74655;-68
2023/07/25 04:07:04;;;;;;;14.90;13.50;;;;;;;19.85;100.00;98027.38;109440;1253;66833;-69
2023/07/25 04:09:32;;;;;;;15.10;13.80;;;;;;;19.86;100.00;98031.55;109478;1253;73138;-69
2023/07/25 04:11:59;;;;;;;14.90;13.40;;;;;;;19.88;100.00;98031.07;109358;1254;60408;-67
2023/07/25 04:14:26;;;;;;;19.10;14.50;;;;;;;19.96;100.00;98014.58;109496;1254;59203;-67
2023/07/25 04:16:54;;;;;;;15.50;14.10;;;;;;;20.12;100.00;98019.81;109479;1253;73422;-68
2023/07/25 04:19:21;;;;;;;15.70;14.10;;;;;;;20.31;100.00;98015.77;109481;1253;67541;-68
2023/07/25 04:21:49;;;;;;;15.50;14.00;;;;;;;20.50;100.00;98030.23;109477;1252;72715;-68
2023/07/25 04:24:16;;;;;;;14.90;13.50;;;;;;;20.65;100.00;98021.38;109528;1252;61764;-68
2023/07/25 04:26:44;;;;;;;16.00;13.10;;;;;;;20.78;100.00;98024.23;109410;1254;59506;-68
2023/07/25 04:29:11;;;;;;;12.70;11.50;;;;;;;20.96;100.00;98019.52;109422;1253;74666;-68
2023/07/25 04:31:39;;;;;;;13.50;12.10;;;;;;;21.19;100.00;98026.11;109528;1253;66457;-67
2023/07/25 04:34:06;;;;;;;12.00;11.00;;;;;;;21.48;100.00;98015.52;109400;1255;72725;-68
2023/07/25 04:36:33;;;;;;;12.30;11.20;;;;;;;21.83;100.00;98014.09;109387;1253;59921;-67
2023/07/25 04:39:01;;;;;;;10.70;9.80;;;;;;;22.20;100.00;97993.55;109428;1253;59974;-68
2023/07/25 04:41:28;;;;;;;10.90;9.90;;;;;;;22.46;100.00;97983.73;109428;1253;74632;-68
2023/07/25 04:43:56;;;;;;;11.60;10.60;;;;;;;22.54;100.00;97979.48;109379;1255;66284;-68
2023/07/25 04:46:23;;;;;;;10.60;9.60;;;;;;;22.43;100.00;97978.28;109417;1252;71051;-68
2023/07/25 04:48:51;;;;;;;10.50;9.70;;;;;;;22.35;100.00;97971.34;109427;1253;60404;-68
2023/07/25 04:51:18;;;;;;;10.70;9.30;;;;;;;22.50;100.00;97958.11;109276;1254;60521;-66
2023/07/25 04:53:46;;;;;;;11.00;10.00;;;;;;;22.77;100.00;97954.88;109416;1254;74649;-65
2023/07/25 04:56:13;;;;;;;10.40;9.50;;;;;;;23.08;100.00;97950.34;109422;1257;67714;-65
2023/07/25 04:58:43;;;;;;;10.20;9.40;;;;;;;23.39;100.00;97935.42;109342;1253;71832;-66
2023/07/25 05:01:12;;;;;;;9.70;8.90;;;;;;;23.69;100.00;97920.95;109447;1254;60462;-67
2023/07/25 05:03:39;;;;;;;9.80;7.80;;;;;;;24.01;100.00;97909.69;109376;1253;60193;-66
2023/07/25 05:06:07;;;;;;;9.50;8.70;;;;;;;24.26;100.00;97905.23;109474;1253;74650;-66
2023/07/25 05:08:34;;;;;;;9.40;8.60;;;;;;;24.32;100.00;97901.02;109418;1252;66309;-67
2023/07/25 05:11:02;;;;;;;8.60;7.80;;;;;;;24.27;100.00;97897.77;109386;1254;72350;-66
2023/07/25 05:13:29;;;;;;;8.30;7.50;;;;;;;24.18;100.00;97897.98;109430;1254;60392;-67
2023/07/25 05:15:57;;;;;;;9.70;7.70;;;;;;;24.20;100.00;97895.29;109341;1253;59512;-67
2023/07/25 05:18:24;;;;;;;8.90;8.20;;;;;;;24.27;100.00;97893.38;109376;1252;74651;-67
2023/07/25 05:20:51;;;;;;;8.60;7.90;;;;;;;24.39;100.00;97894.53;109477;1253;66482;-67
2023/07/25 05:23:19;;;;;;;9.80;7.70;;;;;;;24.56;100.00;97896.05;109407;1253;72707;-67
2023/07/25 05:25:46;;;;;;;8.50;7.80;;;;;;;24.66;100.00;97894.95;109436;1253;60155;-67
2023/07/25 05:28:14;;;;;;;9.10;8.20;;;;;;;24.63;100.00;97890.60;109412;1253;60039;-67
2023/07/25 05:30:41;;;;;;;7.70;7.10;;;;;;;24.52;100.00;97890.36;109355;1254;76888;-67
2023/07/25 05:33:09;;;;;;;8.10;7.50;;;;;;;24.37;100.00;97889.35;109428;1253;67742;-67
2023/07/25 05:35:36;;;;;;;8.80;7.50;;;;;;;24.22;100.00;97890.91;109335;1254;71487;-66
2023/07/25 05:38:07;;;;;;;9.70;8.40;;;;;;;24.13;100.00;97894.80;109305;1253;60433;-66
2023/07/25 05:40:35;;;;;;;9.40;8.60;;;;;;;24.04;100.00;97892.36;109482;1253;60015;-66
2023/07/25 05:43:03;;;;;;;9.60;8.70;;;;;;;23.94;100.00;97898.48;109459;1253;74828;-66
2023/07/25 05:45:30;;;;;;;8.00;7.40;;;;;;;23.87;100.00;97900.81;109441;1255;66525;-67
2023/07/25 05:47:57;;;;;;;8.70;7.80;;;;;;;23.77;100.00;97898.58;109373;1253;72666;-67
2023/07/25 05:50:25;;;;;;;8.70;8.00;;;;;;;23.70;100.00;97888.77;109359;1254;61667;-67
2023/07/25 05:52:52;;;;;;;8.60;7.80;;;;;;;23.61;100.00;97889.79;109335;1254;59183;-66
2023/07/25 05:55:20;;;;;;;9.70;7.70;;;;;;;23.61;100.00;97893.90;109382;1253;73365;-67
2023/07/25 05:57:47;;;;;;;9.80;8.10;;;;;;;23.74;100.00;97889.86;109446;1253;66779;-67
2023/07/25 06:00:15;;;;;;;9.20;8.40;;;;;;;23.85;100.00;97880.70;109406;1253;72726;-66
2023/07/25 06:02:42;;;;;;;10.90;8.60;;;;;;;23.94;100.00;97875.50;109452;1257;60752;-67
2023/07/25 06:05:10;;;;;;;10.10;8.50;;;;;;;24.01;100.00;97872.96;109511;1253;60278;-67
2023/07/25 06:07:37;;;;;;;10.10;9.20;;;;;;;24.06;100.00;97868.44;109390;1253;76077;-59
2023/07/25 06:10:05;;;;;;;10.00;9.20;;;;;;;24.09;100.00;97863.08;109505;1254;67552;-67
2023/07/25 06:12:33;;;;;;;10.50;9.40;;;;;;;24.13;100.00;97857.86;109338;1254;72703;-67
2023/07/25 06:15:00;;;;;;;10.10;9.00;;;;;;;24.23;100.00;97855.58;109227;1253;61661;-69
2023/07/25 06:17:28;;;;;;;9.50;8.70;;;;;;;24.32;100.00;97852.10;109453;1253;60173;-68
2023/07/25 06:19:55;;;;;;;10.10;9.00;;;;;;;24.52;100.00;97850.88;109413;1252;73890;-67
2023/07/25 06:22:22;;;;;;;9.90;8.70;;;;;;;24.85;100.00;97847.79;109424;1253;67611;-66
2023/07/25 06:24:50;;;;;;;10.90;9.40;;;;;;;25.22;100.00;97845.54;109397;1254;72747;-66
2023/07/25 06:27:17;;;;;;;10.70;9.70;;;;;;;25.61;100.00;97842.50;109254;1256;59276;-68
2023/07/25 06:29:45;;;;;;;9.70;8.80;;;;;;;26.02;100.00;97842.75;109427;1254;59332;-67
2023/07/25 06:32:12;;;;;;;9.70;8.80;;;;;;;26.35;100.00;97843.03;109429;1258;73395;-69
2023/07/25 06:34:40;;;;;;;10.40;9.40;;;;;;;26.67;100.00;97844.48;109389;1253;67620;-72
2023/07/25 06:37:07;;;;;;;10.30;9.30;;;;;;;27.06;100.00;97841.81;109424;1254;72668;-69
2023/07/25 06:39:35;;;;;;;10.40;9.50;;;;;;;27.48;100.00;97836.33;109374;1253;60082;-70
2023/07/25 06:42:03;;;;;;;10.10;9.00;;;;;;;27.90;100.00;97833.73;109449;1254;59024;-70
2023/07/25 06:44:32;;;;;;;10.60;9.70;;;;;;;28.23;100.00;97830.72;109294;1253;74978;-70
2023/07/25 06:47:00;;;;;;;10.20;9.10;;;;;;;28.39;100.00;97824.45;109438;1253;66446;-69
2023/07/25 06:49:27;;;;;;;10.50;9.50;;;;;;;28.38;100.00;97825.06;109536;1254;73091;-68
2023/07/25 06:52:00;;;;;;;10.60;8.20;;;;;;;28.24;100.00;97822.70;109390;1253;58900;-70
2023/07/25 06:54:28;;;;;;;10.20;9.40;;;;;;;28.08;100.00;97818.19;109425;1254;60005;-69
2023/07/25 06:56:55;;;;;;;10.00;9.10;;;;;;;27.83;100.00;97822.58;109234;1254;290363;-69
2023/07/25 06:59:24;;;;;;;9.10;8.40;;;;;;;27.55;100.00;97818.31;109366;1254;67089;-69
2023/07/25 07:01:51;;;;;;;9.60;8.80;;;;;;;27.28;100.00;97819.02;109374;1254;72695;-69
2023/07/25 07:04:19;;;;;;;9.80;8.90;;;;;;;27.15;100.00;97821.14;109443;1254;59031;-69
2023/07/25 07:06:46;;;;;;;8.50;7.80;;;;;;;27.19;100.00;97819.38;109454;1252;60020;-69
2023/07/25 07:09:13;;;;;;;9.00;8.20;;;;;;;27.41;100.00;97812.80;109452;1253;74658;-68
2023/07/25 07:11:44;;;;;;;8.50;7.80;;;;;;;27.76;100.00;97810.63;109434;1253;68361;-68
2023/07/25 07:14:11;;;;;;;9.60;8.80;;;;;;;28.24;100.00;97810.77;109348;1254;75169;-69
2023/07/25 07:16:39;;;;;;;9.20;8.30;;;;;;;28.55;100.00;97807.57;109350;1252;59837;-70
2023/07/25 07:19:06;;;;;;;9.30;8.50;;;;;;;28.66;100.00;97809.40;109418;1253;59891;-68
2023/07/25 07:21:33;;;;;;;9.80;8.80;;;;;;;28.70;100.00;97809.16;109401;1254;74701;-71
2023/07/25 07:24:01;;;;;;;14.40;8.90;;;;;;;28.70;100.00;97813.98;109363;1253;68121;-69
2023/07/25 07:26:28;;;;;;;9.20;8.20;;;;;;;28.66;100.00;97811.59;109413;1254;72689;-69
2023/07/25 07:28:56;;;;;;;9.60;8.60;;;;;;;28.64;100.00;97813.52;109425;1253;60306;-69
2023/07/25 07:31:25;;;;;;;8.40;7.60;;;;;;;28.60;100.00;97813.42;109403;1254;59202;-69
2023/07/25 07:33:52;;;;;;;8.90;8.10;;;;;;;28.50;100.00;97813.50;109387;1253;74786;-69
2023/07/25 07:36:19;;;;;;;7.30;6.70;;;;;;;28.35;100.00;97815.54;109357;1253;67723;-69
2023/07/25 07:38:47;;;;;;;8.60;7.40;;;;;;;28.24;100.00;97814.02;109415;1254;72705;-70
2023/07/25 07:41:14;;;;;;;8.10;7.40;;;;;;;28.11;100.00;97816.93;109428;1253;58933;-70
2023/07/25 07:43:42;;;;;;;9.00;8.00;;;;;;;27.94;100.00;97815.02;109400;1254;59622;-66
2023/07/25 07:46:09;;;;;;;8.10;7.40;;;;;;;27.75;100.00;97819.62;109389;1253;74700;-67
2023/07/25 07:48:36;;;;;;;8.50;7.70;;;;;;;27.61;100.00;97822.56;109454;1254;67672;-68
2023/07/25 07:51:04;;;;;;;9.40;8.30;;;;;;;27.47;100.00;97823.61;109427;1254;72831;-68
2023/07/25 07:53:31;;;;;;;8.70;7.90;;;;;;;27.38;100.00;97817.73;109326;1254;60074;-69
2023/07/25 07:56:03;;;;;;;8.50;7.60;;;;;;;27.43;100.00;97811.33;109396;1253;60041;-69
2023/07/25 07:58:30;;;;;;;8.80;7.90;;;;;;;27.55;100.00;97811.77;109392;1254;74710;-69
2023/07/25 08:01:01;;;;;;;8.70;7.90;;;;;;;27.81;100.00;97812.23;109530;1253;67446;-69
2023/07/25 08:03:28;;;;;;;8.40;7.60;;;;;;;28.29;100.00;97812.76;109390;1254;72343;-68
2023/07/25 08:05:57;;;;;;;9.20;8.00;;;;;;;28.95;100.00;97811.27;109363;1253;58959;-69
2023/07/25 08:08:24;;;;;;;8.70;8.00;;;;;;;29.70;100.00;97812.39;109472;1254;58917;-67
2023/07/25 08:10:51;;;;;;;8.70;7.50;;;;;;;30.42;100.00;97812.90;109403;1254;75127;-68
2023/07/25 08:13:19;;;;;;;8.20;7.50;;;;;;;30.99;100.00;97804.89;109559;1253;67164;-68
2023/07/25 08:15:47;;;;;;;8.20;7.20;;;;;;;31.30;100.00;97802.73;109415;1253;72009;-69
2023/07/25 08:18:14;;;;;;;6.90;6.30;;;;;;;31.37;99.69;97803.05;109448;1254;60047;-69
2023/07/25 08:20:44;;;;;;;7.10;6.50;;;;;;;31.31;99.03;97806.69;109459;1253;60582;-69
2023/07/25 08:23:12;;;;;;;8.30;6.60;;;;;;;31.21;97.67;97806.38;109483;1254;77058;-69
2023/07/25 08:25:40;;;;;;;7.10;6.40;;;;;;;31.21;97.70;97812.81;109402;1254;67631;-69
2023/07/25 08:28:07;;;;;;;7.50;6.80;;;;;;;31.40;97.16;97807.77;109507;1254;72424;-69
2023/07/25 08:30:35;;;;;;;7.00;6.40;;;;;;;31.80;95.13;97808.00;109494;1254;58971;-70
2023/07/25 08:33:02;;;;;;;7.40;6.80;;;;;;;32.31;92.64;97813.08;109391;1253;58996;-68
2023/07/25 08:35:30;;;;;;;8.60;6.90;;;;;;;32.72;88.66;97810.52;109413;1253;73379;-69
2023/07/25 08:37:57;;;;;;;7.30;6.70;;;;;;;32.99;85.22;97807.02;109406;1253;66631;-68
2023/07/25 08:40:25;;;;;;;8.00;7.20;;;;;;;33.23;82.40;97808.18;109436;1254;71323;-68
2023/07/25 08:42:52;;;;;;;7.80;7.20;;;;;;;33.39;81.63;97806.11;109488;1252;58900;-68
2023/07/25 08:45:19;;;;;;;8.30;7.20;;;;;;;33.50;80.89;97802.66;109535;1254;58900;-68
2023/07/25 08:47:47;;;;;;;8.00;7.30;;;;;;;33.58;79.19;97805.06;109264;1252;74744;-68
2023/07/25 08:50:15;;;;;;;8.30;7.60;;;;;;;33.68;77.73;97817.66;109357;1252;67585;-68
2023/07/25 08:52:48;;;;;;;8.70;7.90;;;;;;;33.80;76.47;97818.64;109395;1254;71124;-68
2023/07/25 08:55:16;;;;;;;8.50;7.80;;;;;;;33.90;74.96;97819.70;109360;1254;59322;-69
2023/07/25 08:57:44;;;;;;;9.00;8.30;;;;;;;33.82;74.42;97820.70;109297;1253;60034;-69
2023/07/25 09:00:14;;;;;;;9.20;8.40;;;;;;;33.60;73.50;97824.39;109490;1253;75424;-68
2023/07/25 09:02:42;;;;;;;10.40;9.40;;;;;;;33.28;72.09;97822.14;109473;1253;66342;-68
2023/07/25 09:05:09;;;;;;;10.70;9.10;;;;;;;32.86;73.93;97816.77;109337;1254;70681;-68
2023/07/25 09:07:37;;;;;;;9.40;8.70;;;;;;;32.70;76.32;97812.10;109341;1253;60104;-69
2023/07/25 09:10:05;;;;;;;11.10;10.10;;;;;;;32.59;76.14;97818.27;109393;1254;58967;-68
2023/07/25 09:12:32;;;;;;;10.60;9.60;;;;;;;32.56;78.01;97824.02;109388;1254;74796;-69
2023/07/25 09:15:00;;;;;;;10.00;9.20;;;;;;;32.75;78.24;97822.64;109408;1253;66405;-69
2023/07/25 09:17:29;;;;;;;9.70;8.90;;;;;;;33.20;77.54;97818.48;109393;1253;72104;-69
2023/07/25 09:19:57;;;;;;;10.00;9.10;;;;;;;33.53;76.33;97815.02;109414;1253;60053;-68
2023/07/25 09:22:28;;;;;;;10.50;9.50;;;;;;;33.79;77.84;97814.42;109390;1253;60186;-68
2023/07/25 09:24:57;;;;;;;10.40;9.50;;;;;;;34.18;76.53;97810.30;109469;1252;74685;-68
2023/07/25 09:27:25;;;;;;;10.20;9.20;;;;;;;34.17;75.36;97808.63;109420;1253;66594;-68
2023/07/25 09:29:52;;;;;;;10.70;9.70;;;;;;;34.01;74.55;97808.34;109394;1254;71400;-68
2023/07/25 09:32:25;;;;;;;9.50;8.70;;;;;;;34.04;75.17;97812.14;109321;1254;60136;-67
2023/07/25 09:35:01;;;;;;;11.10;10.20;;;;;;;34.36;74.54;97807.89;109399;1253;60029;-69
2023/07/25 09:37:28;;;;;;;10.40;9.50;;;;;;;34.69;71.33;97798.27;109441;1253;74856;-69
2023/07/25 09:39:55;;;;;;;10.80;9.90;;;;;;;35.07;69.79;97796.15;109452;1253;67924;-69
2023/07/25 09:42:24;;;;;;;10.00;9.10;;;;;;;35.56;68.68;97787.20;109426;1253;72821;-69
2023/07/25 09:44:52;;;;;;;10.60;9.70;;;;;;;35.97;65.88;97783.48;109392;1253;58934;-69
2023/07/25 09:47:26;;;;;;;11.40;10.40;;;;;;;36.23;63.43;97777.64;109407;1254;60147;-68
2023/07/25 09:49:55;;;;;;;11.30;10.20;;;;;;;36.18;61.91;97773.41;109484;1254;73355;-69
2023/07/25 09:52:22;;;;;;;10.80;9.70;;;;;;;36.27;61.61;97768.98;109402;1253;67903;-69
2023/07/25 09:54:50;;;;;;;16.00;11.10;;;;;;;36.47;60.99;97769.45;109377;1253;72651;-68
2023/07/25 09:57:17;;;;;;;11.40;10.40;;;;;;;36.51;60.60;97772.90;109363;1253;60551;-69
2023/07/25 09:59:44;;;;;;;11.30;10.30;;;;;;;36.19;59.56;97779.42;109325;1253;60945;-67
2023/07/25 10:02:12;;;;;;;11.50;10.50;;;;;;;35.52;59.89;97774.88;109389;1254;73993;-69
2023/07/25 10:04:40;;;;;;;11.40;10.50;;;;;;;34.67;63.18;97780.05;109490;1253;68079;-68
2023/07/25 10:07:07;;;;;;;11.40;10.50;;;;;;;33.94;66.56;97774.02;109376;1253;71066;-70
2023/07/25 10:09:35;;;;;;;11.60;10.60;;;;;;;33.25;71.06;97774.91;109344;1253;60118;-68
2023/07/25 10:12:03;;;;;;;11.60;10.60;;;;;;;32.64;76.77;97770.35;109325;1253;60031;-68
2023/07/25 10:14:36;;;;;;;12.80;11.70;;;;;;;32.18;82.37;97772.08;109356;1252;74701;-67
2023/07/25 10:17:07;;;;;;;11.40;10.40;;;;;;;31.75;85.72;97769.90;109297;1253;67002;-68
2023/07/25 10:20:05;;;;;;;11.90;10.90;;;;;;;31.42;89.25;97766.80;109220;1253;72449;-68
2023/07/25 10:22:37;;;;;;;13.10;10.40;;;;;;;31.45;91.66;97766.23;109431;1252;60089;-69
2023/07/25 10:25:20;;;;;;;11.90;10.80;;;;;;;31.63;92.45;97761.16;109408;1254;59457;-68
2023/07/25 10:27:47;;;;;;;11.90;10.30;;;;;;;31.63;91.61;97764.30;109445;1253;74674;-68
2023/07/25 10:30:28;;;;;;;11.20;10.30;;;;;;;31.62;92.26;97765.90;109286;1253;67888;-68
2023/07/25 10:33:02;;;;;;;11.50;10.50;;;;;;;31.72;93.61;97772.81;109363;1253;72786;-68
2023/07/25 10:35:52;;;;;;;11.80;10.30;;;;;;;31.80;93.43;97769.42;109315;1253;60162;-68
2023/07/25 10:38:33;;;;;;;10.70;9.80;;;;;;;31.76;94.19;97772.38;109393;1253;60120;-69
2023/07/25 10:41:08;;;;;;;11.20;10.10;;;;;;;31.81;93.55;97768.17;109345;1253;74663;-68
2023/07/25 10:43:55;;;;;;;10.40;9.50;;;;;;;31.78;93.36;97764.57;109391;1253;65844;-68
2023/07/25 10:46:29;;;;;;;11.90;10.50;;;;;;;31.81;94.51;97775.19;109468;1253;72965;-67
2023/07/25 10:49:04;;;;;;;10.00;9.10;;;;;;;31.77;93.58;97769.27;109386;1254;58949;-68
2023/07/25 10:51:51;;;;;;;11.90;10.60;;;;;;;31.76;96.16;97771.42;109443;1253;60241;-67
2023/07/25 10:54:20;;;;;;;11.40;10.40;;;;;;;31.83;98.47;97780.34;109346;1254;73426;-68
2023/07/25 10:57:06;;;;;;;10.90;9.90;;;;;;;31.89;97.84;97785.21;109438;1252;66651;-68
2023/07/25 10:59:33;;;;;;;12.00;11.00;;;;;;;31.98;97.73;97790.30;109377;1253;72122;-68
2023/07/25 11:02:01;;;;;;;10.60;9.80;;;;;;;31.94;96.11;97784.27;109269;1254;59048;-68
2023/07/25 11:04:30;;;;;;;10.50;9.60;;;;;;;31.85;97.86;97780.48;109312;1252;60056;-68
2023/07/25 11:07:09;;;;;;;10.40;9.40;;;;;;;31.79;99.77;97771.90;109350;1253;74840;-69
2023/07/25 11:09:41;;;;;;;11.70;9.80;;;;;;;31.80;100.00;97769.58;109409;1253;67817;-68
2023/07/25 11:12:10;;;;;;;10.90;9.90;;;;;;;31.81;100.00;97769.75;109382;1254;72682;-69
2023/07/25 11:14:42;;;;;;;11.30;9.70;;;;;;;31.76;100.00;97767.98;109473;1252;60364;-68
2023/07/25 11:17:12;;;;;;;10.90;9.90;;;;;;;31.70;100.00;97775.65;109366;1254;60188;-68